sensor_id;sensor_type;location;lat;lon;timestamp;P1;durP1;ratioP1;P2;durP2;ratioP2
43184;SDS011;28803;52.308;19.096;2022-11-20T00:01:17;22.95;;;9.88;;
43184;SDS011;28803;52.308;19.096;2022-11-20T00:03:45;20.58;;;9.23;;
43184;SDS011;28803;52.308;19.096;2022-11-20T00:06:14;22.17;;;9.98;;
43184;SDS011;28803;52.308;19.096;2022-11-20T00:08:43;24.15;;;10.27;;
43184;SDS011;28803;52.308;19.096;2022-11-20T00:11:12;23.88;;;9.70;;
43184;SDS011;28803;52.308;19.096;2022-11-20T00:13:42;20.52;;;9.95;;
43184;SDS011;28803;52.308;19.096;2022-11-20T00:16:14;20.45;;;10.68;;
43184;SDS011;28803;52.308;19.096;2022-11-20T00:18:43;19.40;;;9.43;;
43184;SDS011;28803;52.308;19.096;2022-11-20T00:21:13;18.90;;;9.10;;
43184;SDS011;28803;52.308;19.096;2022-11-20T00:23:41;20.48;;;8.35;;
43184;SDS011;28803;52.308;19.096;2022-11-20T00:26:09;23.95;;;12.43;;
43184;SDS011;28803;52.308;19.096;2022-11-20T00:28:38;20.35;;;8.93;;
43184;SDS011;28803;52.308;19.096;2022-11-20T00:31:07;22.92;;;9.57;;
43184;SDS011;28803;52.308;19.096;2022-11-20T00:33:35;26.10;;;9.57;;
43184;SDS011;28803;52.308;19.096;2022-11-20T00:36:04;19.13;;;9.90;;
43184;SDS011;28803;52.308;19.096;2022-11-20T00:38:32;23.52;;;8.27;;
43184;SDS011;28803;52.308;19.096;2022-11-20T00:41:01;22.42;;;10.05;;
43184;SDS011;28803;52.308;19.096;2022-11-20T00:43:30;23.00;;;9.07;;
43184;SDS011;28803;52.308;19.096;2022-11-20T00:45:58;22.40;;;10.23;;
43184;SDS011;28803;52.308;19.096;2022-11-20T00:48:25;22.05;;;9.57;;
43184;SDS011;28803;52.308;19.096;2022-11-20T00:50:53;23.70;;;9.27;;
43184;SDS011;28803;52.308;19.096;2022-11-20T00:53:20;23.20;;;9.68;;
43184;SDS011;28803;52.308;19.096;2022-11-20T00:58:21;23.85;;;9.93;;
43184;SDS011;28803;52.308;19.096;2022-11-20T01:00:49;21.77;;;9.63;;
43184;SDS011;28803;52.308;19.096;2022-11-20T01:03:17;21.83;;;10.05;;
43184;SDS011;28803;52.308;19.096;2022-11-20T01:05:51;22.58;;;9.90;;
43184;SDS011;28803;52.308;19.096;2022-11-20T01:08:18;20.70;;;9.05;;
43184;SDS011;28803;52.308;19.096;2022-11-20T01:10:45;26.02;;;11.63;;
43184;SDS011;28803;52.308;19.096;2022-11-20T01:13:12;22.55;;;10.90;;
43184;SDS011;28803;52.308;19.096;2022-11-20T01:16:01;25.02;;;10.38;;
43184;SDS011;28803;52.308;19.096;2022-11-20T01:18:30;29.67;;;11.02;;
43184;SDS011;28803;52.308;19.096;2022-11-20T01:21:07;24.92;;;10.77;;
43184;SDS011;28803;52.308;19.096;2022-11-20T01:23:45;23.80;;;11.15;;
43184;SDS011;28803;52.308;19.096;2022-11-20T01:26:15;22.17;;;9.65;;
43184;SDS011;28803;52.308;19.096;2022-11-20T01:28:51;24.33;;;10.35;;
43184;SDS011;28803;52.308;19.096;2022-11-20T01:31:24;19.55;;;9.15;;
43184;SDS011;28803;52.308;19.096;2022-11-20T01:33:59;20.30;;;9.13;;
43184;SDS011;28803;52.308;19.096;2022-11-20T01:36:34;23.80;;;9.90;;
43184;SDS011;28803;52.308;19.096;2022-11-20T01:39:04;28.17;;;11.70;;
43184;SDS011;28803;52.308;19.096;2022-11-20T01:41:34;21.05;;;9.90;;
43184;SDS011;28803;52.308;19.096;2022-11-20T01:44:20;21.88;;;10.57;;
43184;SDS011;28803;52.308;19.096;2022-11-20T01:49:28;22.58;;;9.52;;
43184;SDS011;28803;52.308;19.096;2022-11-20T01:52:02;19.08;;;10.35;;
43184;SDS011;28803;52.308;19.096;2022-11-20T01:54:35;26.42;;;11.52;;
43184;SDS011;28803;52.308;19.096;2022-11-20T01:57:08;26.63;;;11.63;;
43184;SDS011;28803;52.308;19.096;2022-11-20T01:59:39;23.55;;;10.60;;
43184;SDS011;28803;52.308;19.096;2022-11-20T02:02:10;30.65;;;13.18;;
43184;SDS011;28803;52.308;19.096;2022-11-20T02:04:37;20.90;;;10.70;;
43184;SDS011;28803;52.308;19.096;2022-11-20T02:07:04;27.35;;;12.82;;
43184;SDS011;28803;52.308;19.096;2022-11-20T02:09:32;26.02;;;11.63;;
43184;SDS011;28803;52.308;19.096;2022-11-20T02:11:59;28.67;;;13.23;;
43184;SDS011;28803;52.308;19.096;2022-11-20T02:14:27;30.00;;;12.30;;
43184;SDS011;28803;52.308;19.096;2022-11-20T02:16:55;27.67;;;11.73;;
43184;SDS011;28803;52.308;19.096;2022-11-20T02:19:23;23.80;;;10.50;;
43184;SDS011;28803;52.308;19.096;2022-11-20T02:24:31;25.08;;;10.38;;
43184;SDS011;28803;52.308;19.096;2022-11-20T02:27:03;28.38;;;12.05;;
43184;SDS011;28803;52.308;19.096;2022-11-20T02:29:41;26.83;;;12.57;;
43184;SDS011;28803;52.308;19.096;2022-11-20T02:32:25;31.20;;;11.90;;
43184;SDS011;28803;52.308;19.096;2022-11-20T02:34:54;25.35;;;11.25;;
43184;SDS011;28803;52.308;19.096;2022-11-20T02:37:22;27.05;;;11.05;;
43184;SDS011;28803;52.308;19.096;2022-11-20T02:39:50;21.15;;;10.73;;
43184;SDS011;28803;52.308;19.096;2022-11-20T02:42:18;29.35;;;12.27;;
43184;SDS011;28803;52.308;19.096;2022-11-20T02:44:45;33.72;;;13.25;;
43184;SDS011;28803;52.308;19.096;2022-11-20T02:47:12;29.38;;;12.52;;
43184;SDS011;28803;52.308;19.096;2022-11-20T02:49:39;25.08;;;11.50;;
43184;SDS011;28803;52.308;19.096;2022-11-20T02:52:06;27.83;;;11.45;;
43184;SDS011;28803;52.308;19.096;2022-11-20T02:54:33;27.25;;;11.63;;
43184;SDS011;28803;52.308;19.096;2022-11-20T02:57:01;33.97;;;12.93;;
43184;SDS011;28803;52.308;19.096;2022-11-20T02:59:28;27.65;;;12.00;;
43184;SDS011;28803;52.308;19.096;2022-11-20T03:01:55;21.38;;;10.52;;
43184;SDS011;28803;52.308;19.096;2022-11-20T03:04:22;28.73;;;10.75;;
43184;SDS011;28803;52.308;19.096;2022-11-20T03:06:49;28.55;;;12.48;;
43184;SDS011;28803;52.308;19.096;2022-11-20T03:09:16;24.33;;;12.30;;
43184;SDS011;28803;52.308;19.096;2022-11-20T03:11:43;29.08;;;11.45;;
43184;SDS011;28803;52.308;19.096;2022-11-20T03:14:10;28.02;;;12.10;;
43184;SDS011;28803;52.308;19.096;2022-11-20T03:16:38;32.88;;;12.90;;
43184;SDS011;28803;52.308;19.096;2022-11-20T03:19:05;29.02;;;11.60;;
43184;SDS011;28803;52.308;19.096;2022-11-20T03:21:35;29.80;;;11.93;;
43184;SDS011;28803;52.308;19.096;2022-11-20T03:24:02;26.83;;;11.27;;
43184;SDS011;28803;52.308;19.096;2022-11-20T03:26:29;28.10;;;13.45;;
43184;SDS011;28803;52.308;19.096;2022-11-20T03:28:58;25.50;;;11.70;;
43184;SDS011;28803;52.308;19.096;2022-11-20T03:31:28;27.98;;;12.73;;
43184;SDS011;28803;52.308;19.096;2022-11-20T03:33:57;31.08;;;13.23;;
43184;SDS011;28803;52.308;19.096;2022-11-20T03:36:25;31.70;;;12.60;;
43184;SDS011;28803;52.308;19.096;2022-11-20T03:38:53;31.38;;;12.40;;
43184;SDS011;28803;52.308;19.096;2022-11-20T03:41:23;26.13;;;12.25;;
43184;SDS011;28803;52.308;19.096;2022-11-20T03:43:56;31.30;;;11.85;;
43184;SDS011;28803;52.308;19.096;2022-11-20T03:46:24;27.05;;;12.07;;
43184;SDS011;28803;52.308;19.096;2022-11-20T03:48:52;35.10;;;13.15;;
43184;SDS011;28803;52.308;19.096;2022-11-20T03:51:21;27.83;;;11.68;;
43184;SDS011;28803;52.308;19.096;2022-11-20T03:53:49;22.58;;;10.60;;
43184;SDS011;28803;52.308;19.096;2022-11-20T03:56:19;30.30;;;12.38;;
43184;SDS011;28803;52.308;19.096;2022-11-20T03:58:48;30.85;;;12.57;;
43184;SDS011;28803;52.308;19.096;2022-11-20T04:01:19;31.92;;;13.10;;
43184;SDS011;28803;52.308;19.096;2022-11-20T04:03:48;24.73;;;10.73;;
43184;SDS011;28803;52.308;19.096;2022-11-20T04:06:17;31.88;;;12.25;;
43184;SDS011;28803;52.308;19.096;2022-11-20T04:08:48;32.03;;;10.43;;
43184;SDS011;28803;52.308;19.096;2022-11-20T04:11:20;30.30;;;12.27;;
43184;SDS011;28803;52.308;19.096;2022-11-20T04:13:53;26.33;;;11.98;;
43184;SDS011;28803;52.308;19.096;2022-11-20T04:16:25;25.42;;;11.52;;
43184;SDS011;28803;52.308;19.096;2022-11-20T04:18:55;24.73;;;11.13;;
43184;SDS011;28803;52.308;19.096;2022-11-20T04:21:24;26.48;;;10.32;;
43184;SDS011;28803;52.308;19.096;2022-11-20T04:23:52;30.52;;;11.65;;
43184;SDS011;28803;52.308;19.096;2022-11-20T04:26:20;26.15;;;11.35;;
43184;SDS011;28803;52.308;19.096;2022-11-20T04:28:48;25.50;;;10.18;;
43184;SDS011;28803;52.308;19.096;2022-11-20T04:31:17;29.38;;;10.90;;
43184;SDS011;28803;52.308;19.096;2022-11-20T04:33:45;24.90;;;11.32;;
43184;SDS011;28803;52.308;19.096;2022-11-20T04:38:41;25.60;;;11.07;;
43184;SDS011;28803;52.308;19.096;2022-11-20T04:41:11;27.08;;;10.93;;
43184;SDS011;28803;52.308;19.096;2022-11-20T04:43:47;25.40;;;10.80;;
43184;SDS011;28803;52.308;19.096;2022-11-20T04:46:16;25.30;;;10.48;;
43184;SDS011;28803;52.308;19.096;2022-11-20T04:48:44;28.55;;;12.45;;
43184;SDS011;28803;52.308;19.096;2022-11-20T04:51:11;26.05;;;11.82;;
43184;SDS011;28803;52.308;19.096;2022-11-20T04:53:38;22.15;;;10.82;;
43184;SDS011;28803;52.308;19.096;2022-11-20T04:56:06;22.50;;;10.43;;
43184;SDS011;28803;52.308;19.096;2022-11-20T04:58:36;24.30;;;11.60;;
43184;SDS011;28803;52.308;19.096;2022-11-20T05:01:12;32.42;;;12.40;;
43184;SDS011;28803;52.308;19.096;2022-11-20T05:03:40;22.83;;;10.05;;
43184;SDS011;28803;52.308;19.096;2022-11-20T05:06:09;24.02;;;10.27;;
43184;SDS011;28803;52.308;19.096;2022-11-20T05:08:38;25.20;;;11.20;;
43184;SDS011;28803;52.308;19.096;2022-11-20T05:11:07;25.98;;;10.70;;
43184;SDS011;28803;52.308;19.096;2022-11-20T05:13:38;27.45;;;10.05;;
43184;SDS011;28803;52.308;19.096;2022-11-20T05:16:09;21.75;;;11.43;;
43184;SDS011;28803;52.308;19.096;2022-11-20T05:18:41;32.88;;;11.82;;
43184;SDS011;28803;52.308;19.096;2022-11-20T05:21:09;20.55;;;10.15;;
43184;SDS011;28803;52.308;19.096;2022-11-20T05:23:36;27.88;;;11.18;;
43184;SDS011;28803;52.308;19.096;2022-11-20T05:26:05;28.67;;;11.45;;
43184;SDS011;28803;52.308;19.096;2022-11-20T05:28:33;24.60;;;11.00;;
43184;SDS011;28803;52.308;19.096;2022-11-20T05:31:07;30.08;;;11.02;;
43184;SDS011;28803;52.308;19.096;2022-11-20T05:33:36;29.20;;;11.90;;
43184;SDS011;28803;52.308;19.096;2022-11-20T05:36:07;26.05;;;11.45;;
43184;SDS011;28803;52.308;19.096;2022-11-20T05:38:34;25.77;;;11.18;;
43184;SDS011;28803;52.308;19.096;2022-11-20T05:41:09;25.48;;;11.63;;
43184;SDS011;28803;52.308;19.096;2022-11-20T05:43:38;23.30;;;11.50;;
43184;SDS011;28803;52.308;19.096;2022-11-20T05:46:08;27.13;;;12.15;;
43184;SDS011;28803;52.308;19.096;2022-11-20T05:48:36;26.73;;;11.30;;
43184;SDS011;28803;52.308;19.096;2022-11-20T05:51:05;32.00;;;11.88;;
43184;SDS011;28803;52.308;19.096;2022-11-20T05:53:34;28.13;;;13.15;;
43184;SDS011;28803;52.308;19.096;2022-11-20T05:56:03;26.67;;;12.00;;
43184;SDS011;28803;52.308;19.096;2022-11-20T05:58:32;28.23;;;11.02;;
43184;SDS011;28803;52.308;19.096;2022-11-20T06:01:04;28.83;;;11.23;;
43184;SDS011;28803;52.308;19.096;2022-11-20T06:03:42;28.25;;;12.30;;
43184;SDS011;28803;52.308;19.096;2022-11-20T06:06:16;27.05;;;10.93;;
43184;SDS011;28803;52.308;19.096;2022-11-20T06:08:43;22.60;;;10.82;;
43184;SDS011;28803;52.308;19.096;2022-11-20T06:11:11;25.58;;;12.25;;
43184;SDS011;28803;52.308;19.096;2022-11-20T06:13:40;24.35;;;9.73;;
43184;SDS011;28803;52.308;19.096;2022-11-20T06:16:09;24.02;;;10.63;;
43184;SDS011;28803;52.308;19.096;2022-11-20T06:18:37;25.75;;;11.25;;
43184;SDS011;28803;52.308;19.096;2022-11-20T06:21:08;27.45;;;11.48;;
43184;SDS011;28803;52.308;19.096;2022-11-20T06:23:40;22.52;;;11.05;;
43184;SDS011;28803;52.308;19.096;2022-11-20T06:26:12;27.23;;;11.23;;
43184;SDS011;28803;52.308;19.096;2022-11-20T06:28:40;21.95;;;8.80;;
43184;SDS011;28803;52.308;19.096;2022-11-20T06:31:09;27.02;;;11.05;;
43184;SDS011;28803;52.308;19.096;2022-11-20T06:33:37;26.02;;;9.27;;
43184;SDS011;28803;52.308;19.096;2022-11-20T06:36:05;23.85;;;9.98;;
43184;SDS011;28803;52.308;19.096;2022-11-20T06:38:36;31.98;;;12.30;;
43184;SDS011;28803;52.308;19.096;2022-11-20T06:41:05;26.50;;;11.20;;
43184;SDS011;28803;52.308;19.096;2022-11-20T06:43:32;26.98;;;11.45;;
43184;SDS011;28803;52.308;19.096;2022-11-20T06:46:00;23.92;;;10.77;;
43184;SDS011;28803;52.308;19.096;2022-11-20T06:48:27;22.90;;;11.10;;
43184;SDS011;28803;52.308;19.096;2022-11-20T06:50:55;25.58;;;9.75;;
43184;SDS011;28803;52.308;19.096;2022-11-20T06:53:23;28.80;;;10.88;;
43184;SDS011;28803;52.308;19.096;2022-11-20T06:55:51;24.17;;;10.45;;
43184;SDS011;28803;52.308;19.096;2022-11-20T06:58:18;23.98;;;9.95;;
43184;SDS011;28803;52.308;19.096;2022-11-20T07:00:45;28.40;;;11.05;;
43184;SDS011;28803;52.308;19.096;2022-11-20T07:03:13;26.00;;;11.85;;
43184;SDS011;28803;52.308;19.096;2022-11-20T07:05:40;23.88;;;11.68;;
43184;SDS011;28803;52.308;19.096;2022-11-20T07:08:07;29.70;;;12.43;;
43184;SDS011;28803;52.308;19.096;2022-11-20T07:10:35;24.50;;;10.38;;
43184;SDS011;28803;52.308;19.096;2022-11-20T07:13:02;32.10;;;11.95;;
43184;SDS011;28803;52.308;19.096;2022-11-20T07:15:29;23.48;;;11.13;;
43184;SDS011;28803;52.308;19.096;2022-11-20T07:17:58;23.15;;;10.50;;
43184;SDS011;28803;52.308;19.096;2022-11-20T07:20:26;30.20;;;11.30;;
43184;SDS011;28803;52.308;19.096;2022-11-20T07:22:54;29.08;;;11.15;;
43184;SDS011;28803;52.308;19.096;2022-11-20T07:25:23;27.98;;;11.90;;
43184;SDS011;28803;52.308;19.096;2022-11-20T07:27:50;29.48;;;11.52;;
43184;SDS011;28803;52.308;19.096;2022-11-20T07:30:17;22.50;;;10.52;;
43184;SDS011;28803;52.308;19.096;2022-11-20T07:32:51;26.77;;;12.27;;
43184;SDS011;28803;52.308;19.096;2022-11-20T07:35:19;28.70;;;11.68;;
43184;SDS011;28803;52.308;19.096;2022-11-20T07:37:47;831.08;;;309.58;;
43184;SDS011;28803;52.308;19.096;2022-11-20T07:40:16;496.27;;;237.20;;
43184;SDS011;28803;52.308;19.096;2022-11-20T07:42:49;618.08;;;274.95;;
43184;SDS011;28803;52.308;19.096;2022-11-20T07:45:22;1177.13;;;452.95;;
43184;SDS011;28803;52.308;19.096;2022-11-20T07:47:50;1249.68;;;512.25;;
43184;SDS011;28803;52.308;19.096;2022-11-20T07:50:18;1099.25;;;503.65;;
43184;SDS011;28803;52.308;19.096;2022-11-20T07:52:45;1699.40;;;692.92;;
43184;SDS011;28803;52.308;19.096;2022-11-20T07:55:13;927.53;;;456.80;;
43184;SDS011;28803;52.308;19.096;2022-11-20T07:57:41;1328.22;;;637.45;;
43184;SDS011;28803;52.308;19.096;2022-11-20T08:00:09;613.40;;;357.23;;
43184;SDS011;28803;52.308;19.096;2022-11-20T08:02:37;534.08;;;280.42;;
43184;SDS011;28803;52.308;19.096;2022-11-20T08:05:06;1216.55;;;471.60;;
43184;SDS011;28803;52.308;19.096;2022-11-20T08:07:40;664.95;;;283.38;;
43184;SDS011;28803;52.308;19.096;2022-11-20T08:10:10;858.55;;;385.92;;
43184;SDS011;28803;52.308;19.096;2022-11-20T08:12:49;572.58;;;267.67;;
43184;SDS011;28803;52.308;19.096;2022-11-20T08:15:36;691.65;;;354.15;;
43184;SDS011;28803;52.308;19.096;2022-11-20T08:20:52;476.05;;;183.70;;
43184;SDS011;28803;52.308;19.096;2022-11-20T08:23:19;611.35;;;260.65;;
43184;SDS011;28803;52.308;19.096;2022-11-20T08:25:48;492.83;;;206.15;;
43184;SDS011;28803;52.308;19.096;2022-11-20T08:28:16;619.92;;;290.95;;
43184;SDS011;28803;52.308;19.096;2022-11-20T08:30:47;626.97;;;283.48;;
43184;SDS011;28803;52.308;19.096;2022-11-20T08:33:16;371.52;;;168.77;;
43184;SDS011;28803;52.308;19.096;2022-11-20T08:35:44;622.25;;;313.38;;
43184;SDS011;28803;52.308;19.096;2022-11-20T08:38:11;185.40;;;111.85;;
43184;SDS011;28803;52.308;19.096;2022-11-20T08:40:39;105.18;;;62.72;;
43184;SDS011;28803;52.308;19.096;2022-11-20T08:43:05;75.50;;;49.20;;
43184;SDS011;28803;52.308;19.096;2022-11-20T08:45:33;74.60;;;51.20;;
43184;SDS011;28803;52.308;19.096;2022-11-20T08:48:01;52.38;;;34.53;;
43184;SDS011;28803;52.308;19.096;2022-11-20T08:50:30;43.20;;;24.83;;
43184;SDS011;28803;52.308;19.096;2022-11-20T08:53:03;43.08;;;23.42;;
43184;SDS011;28803;52.308;19.096;2022-11-20T08:55:31;35.47;;;17.52;;
43184;SDS011;28803;52.308;19.096;2022-11-20T08:58:02;40.38;;;22.60;;
43184;SDS011;28803;52.308;19.096;2022-11-20T09:00:31;38.35;;;19.05;;
43184;SDS011;28803;52.308;19.096;2022-11-20T09:02:59;38.72;;;18.17;;
43184;SDS011;28803;52.308;19.096;2022-11-20T09:05:28;32.33;;;17.67;;
43184;SDS011;28803;52.308;19.096;2022-11-20T09:07:56;28.25;;;16.27;;
43184;SDS011;28803;52.308;19.096;2022-11-20T09:10:23;31.70;;;16.83;;
43184;SDS011;28803;52.308;19.096;2022-11-20T09:12:51;30.25;;;15.90;;
43184;SDS011;28803;52.308;19.096;2022-11-20T09:15:19;36.80;;;19.02;;
43184;SDS011;28803;52.308;19.096;2022-11-20T09:17:57;30.20;;;14.43;;
43184;SDS011;28803;52.308;19.096;2022-11-20T09:20:28;30.13;;;13.90;;
43184;SDS011;28803;52.308;19.096;2022-11-20T09:22:56;33.15;;;14.50;;
43184;SDS011;28803;52.308;19.096;2022-11-20T09:25:24;61.97;;;34.20;;
43184;SDS011;28803;52.308;19.096;2022-11-20T09:27:55;223.25;;;89.43;;
43184;SDS011;28803;52.308;19.096;2022-11-20T09:30:24;49.47;;;30.85;;
43184;SDS011;28803;52.308;19.096;2022-11-20T09:32:51;246.65;;;108.15;;
43184;SDS011;28803;52.308;19.096;2022-11-20T09:35:18;129.68;;;61.83;;
43184;SDS011;28803;52.308;19.096;2022-11-20T09:37:45;45.03;;;26.65;;
43184;SDS011;28803;52.308;19.096;2022-11-20T09:40:18;36.55;;;18.10;;
43184;SDS011;28803;52.308;19.096;2022-11-20T09:45:30;32.25;;;14.52;;
43184;SDS011;28803;52.308;19.096;2022-11-20T09:53:53;32.75;;;13.82;;
43184;SDS011;28803;52.308;19.096;2022-11-20T09:56:25;28.35;;;12.30;;
43184;SDS011;28803;52.308;19.096;2022-11-20T09:58:54;32.03;;;14.25;;
43184;SDS011;28803;52.308;19.096;2022-11-20T10:01:26;33.83;;;15.98;;
43184;SDS011;28803;52.308;19.096;2022-11-20T10:11:34;30.20;;;13.95;;
43184;SDS011;28803;52.308;19.096;2022-11-20T10:14:32;30.23;;;13.00;;
43184;SDS011;28803;52.308;19.096;2022-11-20T10:28:23;21.95;;;9.52;;
43184;SDS011;28803;52.308;19.096;2022-11-20T10:31:02;25.73;;;9.73;;
43184;SDS011;28803;52.308;19.096;2022-11-20T10:33:33;21.40;;;10.02;;
43184;SDS011;28803;52.308;19.096;2022-11-20T10:36:26;23.67;;;9.75;;
43184;SDS011;28803;52.308;19.096;2022-11-20T10:38:59;24.15;;;9.57;;
43184;SDS011;28803;52.308;19.096;2022-11-20T10:41:32;227.60;;;83.10;;
43184;SDS011;28803;52.308;19.096;2022-11-20T10:44:09;55.25;;;35.65;;
43184;SDS011;28803;52.308;19.096;2022-11-20T10:46:43;1026.15;;;371.35;;
43184;SDS011;28803;52.308;19.096;2022-11-20T10:49:12;654.25;;;250.93;;
43184;SDS011;28803;52.308;19.096;2022-11-20T10:51:52;573.58;;;261.42;;
43184;SDS011;28803;52.308;19.096;2022-11-20T10:54:33;388.35;;;195.48;;
43184;SDS011;28803;52.308;19.096;2022-11-20T10:57:08;328.35;;;161.15;;
43184;SDS011;28803;52.308;19.096;2022-11-20T11:02:22;87.88;;;67.05;;
43184;SDS011;28803;52.308;19.096;2022-11-20T11:04:54;35.40;;;25.98;;
43184;SDS011;28803;52.308;19.096;2022-11-20T11:09:57;28.25;;;16.90;;
43184;SDS011;28803;52.308;19.096;2022-11-20T11:12:25;23.58;;;13.82;;
43184;SDS011;28803;52.308;19.096;2022-11-20T11:14:56;20.83;;;11.23;;
43184;SDS011;28803;52.308;19.096;2022-11-20T11:17:28;80.45;;;53.15;;
43184;SDS011;28803;52.308;19.096;2022-11-20T11:20:07;819.50;;;338.08;;
43184;SDS011;28803;52.308;19.096;2022-11-20T11:22:43;491.52;;;229.10;;
43184;SDS011;28803;52.308;19.096;2022-11-20T11:28:43;254.75;;;124.80;;
43184;SDS011;28803;52.308;19.096;2022-11-20T11:30:52;591.03;;;294.45;;
43184;SDS011;28803;52.308;19.096;2022-11-20T11:33:21;825.35;;;411.10;;
43184;SDS011;28803;52.308;19.096;2022-11-20T11:36:00;53.42;;;39.25;;
43184;SDS011;28803;52.308;19.096;2022-11-20T11:38:50;21.95;;;13.18;;
43184;SDS011;28803;52.308;19.096;2022-11-20T11:41:39;18.30;;;9.80;;
43184;SDS011;28803;52.308;19.096;2022-11-20T11:44:19;15.35;;;8.10;;
43184;SDS011;28803;52.308;19.096;2022-11-20T11:47:26;16.08;;;7.80;;
43184;SDS011;28803;52.308;19.096;2022-11-20T11:52:42;15.93;;;7.30;;
43184;SDS011;28803;52.308;19.096;2022-11-20T11:55:30;15.70;;;6.55;;
43184;SDS011;28803;52.308;19.096;2022-11-20T11:58:24;17.00;;;6.80;;
43184;SDS011;28803;52.308;19.096;2022-11-20T12:01:03;19.02;;;7.10;;
43184;SDS011;28803;52.308;19.096;2022-11-20T12:03:38;17.30;;;6.85;;
43184;SDS011;28803;52.308;19.096;2022-11-20T12:06:12;16.50;;;7.18;;
43184;SDS011;28803;52.308;19.096;2022-11-20T12:13:48;11.48;;;6.15;;
43184;SDS011;28803;52.308;19.096;2022-11-20T12:16:22;15.93;;;6.07;;
43184;SDS011;28803;52.308;19.096;2022-11-20T12:18:50;11.02;;;5.40;;
43184;SDS011;28803;52.308;19.096;2022-11-20T12:30:00;917.40;;;365.48;;
43184;SDS011;28803;52.308;19.096;2022-11-20T12:41:44;207.25;;;117.95;;
43184;SDS011;28803;52.308;19.096;2022-11-20T12:45:02;189.90;;;86.53;;
43184;SDS011;28803;52.308;19.096;2022-11-20T12:47:51;58.05;;;40.17;;
43184;SDS011;28803;52.308;19.096;2022-11-20T12:53:31;107.50;;;47.38;;
43184;SDS011;28803;52.308;19.096;2022-11-20T12:59:05;59.85;;;24.73;;
43184;SDS011;28803;52.308;19.096;2022-11-20T13:07:42;58.88;;;25.90;;
43184;SDS011;28803;52.308;19.096;2022-11-20T13:10:15;34.85;;;19.90;;
43184;SDS011;28803;52.308;19.096;2022-11-20T13:12:56;24.15;;;12.10;;
43184;SDS011;28803;52.308;19.096;2022-11-20T13:15:44;32.15;;;13.82;;
43184;SDS011;28803;52.308;19.096;2022-11-20T13:18:31;21.80;;;11.00;;
43184;SDS011;28803;52.308;19.096;2022-11-20T13:21:13;24.75;;;11.30;;
43184;SDS011;28803;52.308;19.096;2022-11-20T13:23:45;15.65;;;8.30;;
43184;SDS011;28803;52.308;19.096;2022-11-20T13:26:16;17.38;;;7.28;;
43184;SDS011;28803;52.308;19.096;2022-11-20T13:31:43;15.48;;;7.40;;
43184;SDS011;28803;52.308;19.096;2022-11-20T13:34:23;20.33;;;8.23;;
43184;SDS011;28803;52.308;19.096;2022-11-20T13:36:53;18.73;;;7.68;;
43184;SDS011;28803;52.308;19.096;2022-11-20T13:41:54;17.58;;;7.63;;
43184;SDS011;28803;52.308;19.096;2022-11-20T13:44:25;17.25;;;7.05;;
43184;SDS011;28803;52.308;19.096;2022-11-20T13:46:55;18.52;;;7.90;;
43184;SDS011;28803;52.308;19.096;2022-11-20T13:54:59;20.67;;;8.48;;
43184;SDS011;28803;52.308;19.096;2022-11-20T14:00:21;69.57;;;34.67;;
43184;SDS011;28803;52.308;19.096;2022-11-20T14:05:28;55.53;;;34.55;;
43184;SDS011;28803;52.308;19.096;2022-11-20T14:08:00;23.55;;;13.63;;
43184;SDS011;28803;52.308;19.096;2022-11-20T14:10:30;19.20;;;9.80;;
43184;SDS011;28803;52.308;19.096;2022-11-20T14:12:58;31.60;;;17.60;;
43184;SDS011;28803;52.308;19.096;2022-11-20T14:15:36;26.75;;;12.38;;
43184;SDS011;28803;52.308;19.096;2022-11-20T14:18:15;24.13;;;10.38;;
43184;SDS011;28803;52.308;19.096;2022-11-20T14:20:48;20.73;;;9.68;;
43184;SDS011;28803;52.308;19.096;2022-11-20T14:23:23;19.55;;;8.00;;
43184;SDS011;28803;52.308;19.096;2022-11-20T14:25:55;19.35;;;9.65;;
43184;SDS011;28803;52.308;19.096;2022-11-20T14:28:27;18.73;;;8.65;;
43184;SDS011;28803;52.308;19.096;2022-11-20T14:30:56;20.10;;;9.20;;
43184;SDS011;28803;52.308;19.096;2022-11-20T14:33:25;18.52;;;9.15;;
43184;SDS011;28803;52.308;19.096;2022-11-20T14:35:56;21.65;;;9.32;;
43184;SDS011;28803;52.308;19.096;2022-11-20T14:38:25;20.55;;;8.70;;
43184;SDS011;28803;52.308;19.096;2022-11-20T14:40:54;21.65;;;8.77;;
43184;SDS011;28803;52.308;19.096;2022-11-20T14:43:32;25.58;;;9.93;;
43184;SDS011;28803;52.308;19.096;2022-11-20T14:46:02;27.52;;;9.88;;
43184;SDS011;28803;52.308;19.096;2022-11-20T14:48:39;25.35;;;9.55;;
43184;SDS011;28803;52.308;19.096;2022-11-20T14:56:57;25.20;;;9.85;;
43184;SDS011;28803;52.308;19.096;2022-11-20T14:59:27;26.75;;;9.90;;
43184;SDS011;28803;52.308;19.096;2022-11-20T15:02:01;27.20;;;11.82;;
43184;SDS011;28803;52.308;19.096;2022-11-20T15:04:32;24.05;;;11.65;;
43184;SDS011;28803;52.308;19.096;2022-11-20T15:07:10;34.53;;;14.15;;
43184;SDS011;28803;52.308;19.096;2022-11-20T15:09:37;40.03;;;14.38;;
43184;SDS011;28803;52.308;19.096;2022-11-20T15:12:04;31.67;;;14.27;;
43184;SDS011;28803;52.308;19.096;2022-11-20T15:14:32;31.52;;;11.77;;
43184;SDS011;28803;52.308;19.096;2022-11-20T15:16:59;28.60;;;12.30;;
43184;SDS011;28803;52.308;19.096;2022-11-20T15:19:26;31.55;;;12.30;;
43184;SDS011;28803;52.308;19.096;2022-11-20T15:21:53;27.83;;;12.93;;
43184;SDS011;28803;52.308;19.096;2022-11-20T15:24:21;33.60;;;12.45;;
43184;SDS011;28803;52.308;19.096;2022-11-20T15:26:48;31.58;;;12.48;;
43184;SDS011;28803;52.308;19.096;2022-11-20T15:29:16;31.65;;;12.25;;
43184;SDS011;28803;52.308;19.096;2022-11-20T15:31:51;29.52;;;11.98;;
43184;SDS011;28803;52.308;19.096;2022-11-20T15:34:19;42.17;;;15.73;;
43184;SDS011;28803;52.308;19.096;2022-11-20T15:36:46;40.35;;;14.27;;
43184;SDS011;28803;52.308;19.096;2022-11-20T15:39:13;35.67;;;16.15;;
43184;SDS011;28803;52.308;19.096;2022-11-20T15:41:40;39.40;;;16.00;;
43184;SDS011;28803;52.308;19.096;2022-11-20T15:44:08;41.28;;;18.52;;
43184;SDS011;28803;52.308;19.096;2022-11-20T15:46:36;44.47;;;18.33;;
43184;SDS011;28803;52.308;19.096;2022-11-20T15:49:12;43.22;;;17.98;;
43184;SDS011;28803;52.308;19.096;2022-11-20T15:51:44;46.28;;;17.42;;
43184;SDS011;28803;52.308;19.096;2022-11-20T15:54:21;34.30;;;14.32;;
43184;SDS011;28803;52.308;19.096;2022-11-20T15:56:49;41.33;;;16.30;;
43184;SDS011;28803;52.308;19.096;2022-11-20T15:59:19;39.28;;;15.70;;
43184;SDS011;28803;52.308;19.096;2022-11-20T16:01:46;40.80;;;15.73;;
43184;SDS011;28803;52.308;19.096;2022-11-20T16:04:14;35.22;;;15.60;;
43184;SDS011;28803;52.308;19.096;2022-11-20T16:06:42;38.33;;;15.23;;
43184;SDS011;28803;52.308;19.096;2022-11-20T16:09:10;41.17;;;16.77;;
43184;SDS011;28803;52.308;19.096;2022-11-20T16:11:37;30.10;;;14.20;;
43184;SDS011;28803;52.308;19.096;2022-11-20T16:14:05;38.22;;;15.40;;
43184;SDS011;28803;52.308;19.096;2022-11-20T16:16:51;39.28;;;16.58;;
43184;SDS011;28803;52.308;19.096;2022-11-20T16:19:19;35.92;;;18.08;;